Time;durP1;ratioP1;P1;durP2;ratioP2;P2;SDS_P1;SDS_P2;PMS_P1;PMS_P2;Temp;Humidity;BMP_temperature;BMP_pressure;BME280_temperature;BME280_humidity;BME280_pressure;Samples;Min_cycle;Max_cycle;Signal;HPM_P1;HPM_P2
2023/01/20 05:43:52;;;;;;;24.25;12.90;;;-2.10;99.90;;;;;;7614165;19;20360;-70
2023/01/20 05:46:24;;;;;;;30.80;12.93;;;-2.10;99.90;;;;;;7624932;19;20014;-70
2023/01/20 05:48:56;;;;;;;24.33;12.85;;;-2.00;99.90;;;;;;7628622;19;20633;-71
2023/01/20 05:51:29;;;;;;;21.38;11.73;;;-2.00;99.90;;;;;;7627745;19;20101;-72
2023/01/20 05:54:01;;;;;;;25.47;13.53;;;-1.90;99.90;;;;;;7629200;19;20082;-70
2023/01/20 05:56:33;;;;;;;27.17;14.07;;;-1.90;99.90;;;;;;7631180;19;20025;-70
2023/01/20 05:59:06;;;;;;;26.08;12.65;;;-1.80;99.90;;;;;;7596491;19;20038;-71
2023/01/20 06:01:39;;;;;;;23.48;12.38;;;-1.80;99.90;;;;;;7577701;19;21033;-70
2023/01/20 06:04:11;;;;;;;23.77;13.13;;;-1.70;99.90;;;;;;7589519;19;20021;-71
2023/01/20 06:06:43;;;;;;;24.33;12.00;;;-1.60;99.90;;;;;;7576935;19;20010;-71
2023/01/20 06:09:15;;;;;;;28.88;13.15;;;-1.60;99.90;;;;;;7592905;19;20025;-70
2023/01/20 06:11:47;;;;;;;24.52;12.95;;;-1.60;99.90;;;;;;7590329;19;20014;-71
2023/01/20 06:14:19;;;;;;;26.92;12.85;;;-1.60;99.90;;;;;;7615495;19;20096;-71
2023/01/20 06:16:51;;;;;;;20.58;11.45;;;-1.50;99.90;;;;;;7585887;19;20637;-70
2023/01/20 06:19:23;;;;;;;28.42;13.88;;;-1.50;99.90;;;;;;7614936;19;20061;-70
2023/01/20 06:21:55;;;;;;;28.02;13.63;;;-1.40;99.90;;;;;;7621911;19;20018;-71
2023/01/20 06:24:27;;;;;;;27.30;14.25;;;-1.40;99.90;;;;;;7637489;19;20018;-71
2023/01/20 06:26:59;;;;;;;31.88;14.82;;;-1.40;99.90;;;;;;7617644;19;20015;-71
2023/01/20 06:29:31;;;;;;;33.83;15.63;;;-1.40;99.90;;;;;;7600771;19;20022;-73
2023/01/20 06:32:04;;;;;;;33.58;16.63;;;-1.40;99.90;;;;;;7587857;19;20011;-70
2023/01/20 06:34:36;;;;;;;39.58;18.02;;;-1.40;99.90;;;;;;7631711;19;20026;-70
2023/01/20 06:37:08;;;;;;;34.60;16.88;;;-1.40;99.90;;;;;;7629951;19;20018;-71
2023/01/20 06:39:40;;;;;;;43.58;20.98;;;-1.40;99.90;;;;;;7605709;19;20021;-70
2023/01/20 06:42:13;;;;;;;;;;;-1.40;99.90;;;;;;7581394;19;20026;-69
2023/01/20 06:44:46;;;;;;;44.08;20.60;;;-1.40;99.90;;;;;;7629964;19;19922;-70
2023/01/20 06:47:18;;;;;;;44.33;21.95;;;-1.40;99.90;;;;;;7628689;19;20556;-69
2023/01/20 06:49:50;;;;;;;39.70;19.20;;;-1.30;99.90;;;;;;7624851;19;20093;-71
2023/01/20 06:52:22;;;;;;;44.63;20.58;;;-1.40;99.90;;;;;;7630451;19;20033;-69
2023/01/20 06:54:54;;;;;;;38.83;20.02;;;-1.30;99.90;;;;;;7604647;19;20010;-70
2023/01/20 06:57:26;;;;;;;45.85;22.30;;;-1.30;99.90;;;;;;7599342;19;20109;-70
2023/01/20 14:49:06;;;;;;;46.25;22.90;;;-0.30;99.90;;;;;;7640755;19;20354;-72
2023/01/20 14:51:38;;;;;;;48.63;24.85;;;-0.30;99.90;;;;;;7640596;19;20006;-69
2023/01/20 14:54:37;;;;;;;46.58;24.40;;;-0.20;99.90;;;;;;7630949;19;20014;-70
2023/01/20 14:57:25;;;;;;;52.25;25.63;;;-0.20;99.90;;;;;;7638221;19;20018;-70
2023/01/20 15:00:18;;;;;;;44.25;23.35;;;-0.10;99.90;;;;;;7634889;19;20022;-70
2023/01/20 15:03:04;;;;;;;50.33;25.00;;;-0.10;99.90;;;;;;7637803;19;20097;-69
2023/01/20 15:06:22;;;;;;;56.28;26.30;;;0.00;99.90;;;;;;7609072;19;20037;-70
2023/01/20 15:08:56;;;;;;;52.22;25.23;;;0.00;99.90;;;;;;7636456;19;20632;-70
2023/01/20 15:11:40;;;;;;;46.35;23.50;;;0.00;99.90;;;;;;7628096;19;20026;-70
2023/01/20 15:14:13;;;;;;;48.60;23.77;;;0.00;99.90;;;;;;7630496;19;20026;-70
2023/01/20 15:16:48;;;;;;;47.03;21.85;;;0.00;99.90;;;;;;7630213;19;20015;-70
2023/01/20 15:19:33;;;;;;;49.13;24.83;;;0.10;99.90;;;;;;7614872;19;20030;-69
2023/01/20 15:22:20;;;;;;;50.38;26.77;;;0.10;99.90;;;;;;7629692;19;20811;-70
2023/01/20 15:24:53;;;;;;;52.08;26.67;;;0.00;99.90;;;;;;7610434;19;20025;-70
2023/01/20 15:27:30;;;;;;;49.80;24.27;;;0.00;99.90;;;;;;7626832;19;20022;-70
2023/01/20 15:30:10;;;;;;;49.38;24.38;;;0.00;99.90;;;;;;7614127;19;20034;-70
2023/01/20 15:32:46;;;;;;;48.45;25.38;;;0.00;99.90;;;;;;7605093;19;20014;-69
2023/01/20 15:35:25;;;;;;;53.92;26.38;;;0.00;99.90;;;;;;7630587;19;20022;-69
2023/01/20 15:37:58;;;;;;;56.65;27.63;;;0.00;99.90;;;;;;7630770;19;20155;-70
2023/01/20 15:40:30;;;;;;;54.15;27.40;;;0.00;99.90;;;;;;7609112;19;20313;-69
2023/01/20 15:43:02;;;;;;;48.38;25.15;;;0.00;99.90;;;;;;7625001;19;20126;-70
2023/01/20 15:45:34;;;;;;;48.85;25.17;;;0.00;99.90;;;;;;7620903;19;21049;-70
2023/01/20 15:48:13;;;;;;;53.85;26.83;;;0.00;99.90;;;;;;7603061;19;20516;-70
2023/01/20 15:50:47;;;;;;;62.83;30.05;;;0.00;99.90;;;;;;7615209;19;20022;-70
2023/01/20 15:53:19;;;;;;;57.05;27.80;;;0.00;99.90;;;;;;7621008;19;20078;-69
2023/01/20 15:55:51;;;;;;;60.80;29.00;;;0.00;99.90;;;;;;7632093;19;20010;-70
2023/01/20 15:58:29;;;;;;;62.17;29.42;;;0.00;99.90;;;;;;7614458;19;20093;-70
2023/01/20 16:01:01;;;;;;;58.17;29.45;;;0.00;99.90;;;;;;7589712;19;20015;-71
2023/01/20 16:03:34;;;;;;;60.20;29.35;;;0.00;99.90;;;;;;7595419;19;20058;-71
2023/01/20 16:06:12;;;;;;;58.22;28.67;;;0.10;99.90;;;;;;7567792;19;20123;-70
2023/01/20 16:08:46;;;;;;;68.30;33.20;;;0.00;99.90;;;;;;7549491;19;20122;-70
2023/01/20 16:11:19;;;;;;;67.78;30.98;;;0.00;99.90;;;;;;7568463;19;20011;-69
2023/01/20 16:13:56;;;;;;;64.18;32.17;;;0.10;99.90;;;;;;7560532;19;20547;-70
2023/01/20 16:16:29;;;;;;;70.22;33.60;;;0.10;99.90;;;;;;7580246;19;20047;-70
2023/01/20 16:19:01;;;;;;;68.05;32.50;;;0.10;99.90;;;;;;7565898;19;20018;-70
2023/01/20 16:21:34;;;;;;;65.50;31.45;;;0.20;99.90;;;;;;7588131;19;20022;-70
2023/01/20 16:24:06;;;;;;;58.05;29.63;;;0.20;99.90;;;;;;7592653;19;20066;-69
2023/01/20 16:26:39;;;;;;;62.43;29.70;;;0.10;99.90;;;;;;7592692;19;20025;-70
2023/01/20 16:29:11;;;;;;;65.10;30.47;;;0.10;99.90;;;;;;7591811;19;20487;-70
2023/01/20 16:31:43;;;;;;;71.60;33.35;;;0.10;99.90;;;;;;7563918;19;20029;-70
2023/01/20 16:34:16;;;;;;;80.60;36.78;;;0.00;99.90;;;;;;7559165;19;20010;-70
2023/01/20 16:36:48;;;;;;;86.32;38.47;;;0.10;99.90;;;;;;7582363;19;20021;-70
2023/01/20 16:39:21;;;;;;;94.60;40.35;;;0.00;99.90;;;;;;7595396;19;20532;-70
2023/01/20 16:41:53;;;;;;;88.18;39.92;;;0.00;99.90;;;;;;7599018;19;20021;-71
2023/01/20 16:44:25;;;;;;;82.45;37.75;;;0.00;99.90;;;;;;7595921;19;20022;-71
2023/01/20 16:46:59;;;;;;;81.10;36.55;;;0.00;99.90;;;;;;7594068;19;20017;-70
2023/01/20 16:49:31;;;;;;;73.63;33.88;;;0.00;99.90;;;;;;7582712;19;20090;-70
2023/01/20 16:52:03;;;;;;;64.82;32.58;;;0.00;99.90;;;;;;7605916;19;20029;-71
2023/01/20 16:54:35;;;;;;;70.47;34.00;;;0.10;99.90;;;;;;7591084;19;20027;-70
2023/01/20 16:57:08;;;;;;;68.40;29.90;;;0.10;99.90;;;;;;7600495;19;20104;-71
2023/01/20 16:59:40;;;;;;;65.67;32.03;;;0.10;99.90;;;;;;7588886;19;20018;-71
2023/01/20 17:02:12;;;;;;;62.15;29.63;;;0.10;99.90;;;;;;7612081;19;20370;-70
2023/01/20 17:04:45;;;;;;;68.05;32.10;;;0.10;99.90;;;;;;7554080;19;20109;-71
2023/01/20 17:07:17;;;;;;;73.40;33.83;;;0.00;99.90;;;;;;7556821;19;20011;-70
2023/01/20 17:09:50;;;;;;;62.25;30.23;;;0.00;99.90;;;;;;7564769;19;20350;-70
2023/01/20 17:12:23;;;;;;;71.22;30.60;;;0.00;99.90;;;;;;7585026;19;20649;-72
2023/01/20 17:14:56;;;;;;;75.47;34.03;;;0.00;99.90;;;;;;7539210;19;20025;-71
2023/01/20 17:17:33;;;;;;;73.93;33.05;;;0.00;99.90;;;;;;7578644;19;20646;-70
2023/01/20 17:20:10;;;;;;;68.07;30.83;;;0.10;99.90;;;;;;7589483;19;20082;-70
2023/01/20 17:22:43;;;;;;;67.28;32.38;;;0.00;99.90;;;;;;7583783;19;20478;-71
2023/01/20 17:25:16;;;;;;;69.43;33.20;;;0.10;99.90;;;;;;7588684;19;20022;-71
2023/01/20 17:27:49;;;;;;;68.47;32.45;;;0.00;99.90;;;;;;7599305;19;20018;-71
2023/01/20 17:30:21;;;;;;;71.13;33.75;;;0.10;99.90;;;;;;7601608;19;20022;-70
2023/01/20 17:32:57;;;;;;;82.95;36.17;;;0.10;99.90;;;;;;7598475;19;20045;-71
2023/01/20 17:35:29;;;;;;;81.68;35.88;;;0.20;99.90;;;;;;7586633;19;20410;-71
2023/01/20 17:38:01;;;;;;;75.53;34.17;;;0.10;99.90;;;;;;7574272;19;20014;-70
2023/01/20 17:40:34;;;;;;;79.73;36.00;;;0.20;99.90;;;;;;7569369;19;20027;-71
2023/01/20 17:43:06;;;;;;;77.47;35.10;;;0.10;99.90;;;;;;7577605;19;20294;-71
2023/01/20 17:45:38;;;;;;;76.93;36.78;;;0.10;99.90;;;;;;7573599;19;20010;-70
2023/01/20 17:48:10;;;;;;;75.68;35.20;;;0.10;99.90;;;;;;7566432;19;20018;-70
2023/01/20 17:50:42;;;;;;;75.25;34.20;;;0.20;99.90;;;;;;7568963;19;20518;-71
2023/01/20 17:53:15;;;;;;;67.65;32.45;;;0.30;99.90;;;;;;7563464;19;20022;-71
2023/01/20 17:55:48;;;;;;;78.53;35.37;;;0.30;99.90;;;;;;7573809;19;20006;-70
2023/01/20 17:58:24;;;;;;;89.32;39.83;;;0.30;99.90;;;;;;7575828;19;20026;-71
2023/01/20 18:00:56;;;;;;;76.03;34.90;;;0.20;99.90;;;;;;7559276;19;20018;-70
2023/01/20 18:03:29;;;;;;;72.60;34.15;;;0.40;99.90;;;;;;7573042;19;20022;-70
2023/01/20 18:06:01;;;;;;;77.70;35.53;;;0.30;99.90;;;;;;7556415;19;20738;-68
2023/01/20 18:08:33;;;;;;;75.55;35.17;;;0.30;99.90;;;;;;7579872;19;20014;-68
2023/01/20 18:11:08;;;;;;;73.95;34.92;;;0.30;99.90;;;;;;7591149;19;20014;-68
2023/01/20 18:13:41;;;;;;;81.03;35.58;;;0.30;99.90;;;;;;7597901;19;20019;-68
2023/01/20 18:16:16;;;;;;;82.00;36.88;;;0.30;99.90;;;;;;7603483;19;20010;-69
2023/01/20 18:18:49;;;;;;;80.10;33.85;;;0.60;99.90;;;;;;7579571;19;20105;-70
2023/01/20 18:21:24;;;;;;;69.63;30.97;;;1.00;99.90;;;;;;7596348;19;20029;-70
2023/01/20 18:23:57;;;;;;;74.75;34.20;;;0.30;99.90;;;;;;7580690;19;20018;-70
2023/01/20 18:26:32;;;;;;;75.47;35.92;;;0.10;99.90;;;;;;7563852;19;20030;-69
2023/01/20 18:29:09;;;;;;;68.40;32.95;;;0.30;99.90;;;;;;7546385;19;20029;-71
2023/01/20 18:31:42;;;;;;;66.75;31.17;;;0.30;99.90;;;;;;7516586;19;20025;-69
2023/01/20 18:34:14;;;;;;;;;;;0.30;99.90;;;;;;7565189;19;20056;-70
2023/01/20 18:36:48;;;;;;;72.68;33.88;;;0.80;99.90;;;;;;7546216;19;19959;-70
2023/01/20 18:39:24;;;;;;;72.10;33.08;;;0.30;99.90;;;;;;7559479;19;21065;-71
2023/01/20 18:41:56;;;;;;;73.65;33.83;;;0.30;99.90;;;;;;7601913;19;20093;-70
2023/01/20 18:44:29;;;;;;;66.63;30.40;;;0.30;99.90;;;;;;7603015;19;21185;-69
2023/01/20 18:47:01;;;;;;;70.63;31.90;;;0.30;99.90;;;;;;7582454;19;20028;-69
2023/01/20 18:49:33;;;;;;;79.27;33.47;;;0.20;99.90;;;;;;7586853;19;20014;-70
2023/01/20 18:52:06;;;;;;;71.80;35.97;;;0.10;99.90;;;;;;7566858;19;20026;-69
2023/01/20 18:54:38;;;;;;;76.70;35.17;;;-0.40;99.90;;;;;;7577920;19;20014;-71
2023/01/20 18:57:10;;;;;;;75.45;33.35;;;0.20;99.90;;;;;;7586223;19;20018;-71
2023/01/20 18:59:42;;;;;;;66.05;31.10;;;0.20;99.90;;;;;;7589197;19;20018;-71
2023/01/20 19:02:15;;;;;;;73.45;29.15;;;0.20;99.90;;;;;;7591232;19;20115;-70
2023/01/20 19:04:47;;;;;;;67.25;27.95;;;-0.50;99.90;;;;;;7569437;19;20019;-71
2023/01/20 19:07:19;;;;;;;63.10;27.47;;;0.20;99.90;;;;;;7551845;19;20579;-71
2023/01/20 19:09:52;;;;;;;58.75;27.33;;;0.20;99.90;;;;;;7584521;19;20038;-71
2023/01/20 19:12:25;;;;;;;55.97;25.57;;;0.20;99.90;;;;;;7593046;19;20728;-70
2023/01/20 19:14:57;;;;;;;64.75;27.02;;;0.20;99.90;;;;;;7599395;19;20026;-70
2023/01/20 19:17:31;;;;;;;56.65;26.27;;;0.20;99.90;;;;;;7580171;19;20023;-71
2023/01/20 19:20:04;;;;;;;53.53;24.10;;;0.10;99.90;;;;;;7574389;19;20018;-71
2023/01/20 19:22:36;;;;;;;51.13;24.63;;;0.10;99.90;;;;;;7588674;19;20017;-71
2023/01/20 19:25:09;;;;;;;54.78;24.90;;;0.10;99.90;;;;;;7590138;19;20519;-71
2023/01/20 19:27:41;;;;;;;57.72;24.10;;;0.10;99.90;;;;;;7548710;19;20019;-70
2023/01/20 19:30:13;;;;;;;57.83;24.65;;;0.10;99.90;;;;;;7587235;19;20016;-70
2023/01/20 19:32:46;;;;;;;55.90;25.60;;;0.00;99.90;;;;;;7537953;19;20025;-71
2023/01/20 19:35:20;;;;;;;61.58;26.10;;;0.00;99.90;;;;;;7597922;19;20977;-70
2023/01/20 19:37:52;;;;;;;57.58;27.15;;;0.00;99.90;;;;;;7593801;19;20470;-70
2023/01/20 19:40:24;;;;;;;61.47;27.30;;;0.00;99.90;;;;;;7587786;19;21311;-71
2023/01/20 19:42:59;;;;;;;63.70;26.80;;;0.00;99.90;;;;;;7599022;19;20089;-70
2023/01/20 19:45:35;;;;;;;62.05;28.45;;;0.00;99.90;;;;;;7594825;19;20018;-71
2023/01/20 19:48:17;;;;;;;69.57;30.65;;;0.00;99.90;;;;;;7560809;19;20015;-70
2023/01/20 19:50:49;;;;;;;69.35;31.35;;;0.00;99.90;;;;;;7541376;19;20089;-71
2023/01/20 19:53:21;;;;;;;67.97;29.70;;;0.00;99.90;;;;;;7582688;19;20026;-71
2023/01/20 19:56:06;;;;;;;79.75;32.83;;;0.00;99.90;;;;;;7581245;19;20043;-70
2023/01/20 19:58:39;;;;;;;67.90;30.08;;;-0.10;99.90;;;;;;7585126;19;20018;-71
2023/01/20 20:01:25;;;;;;;68.93;30.80;;;0.00;99.90;;;;;;7578215;19;20022;-71
2023/01/20 20:04:02;;;;;;;61.83;27.25;;;0.00;99.90;;;;;;7578731;19;20021;-71
2023/01/20 20:06:36;;;;;;;68.03;29.83;;;0.00;99.90;;;;;;7558354;19;20022;-70
2023/01/20 20:09:15;;;;;;;64.90;29.42;;;-0.10;99.90;;;;;;7568829;19;20019;-69
2023/01/20 20:11:48;;;;;;;63.55;29.85;;;0.00;99.90;;;;;;7564097;19;20022;-69
2023/01/20 20:14:21;;;;;;;62.25;30.30;;;0.00;99.90;;;;;;7561904;19;20018;-69
2023/01/20 20:16:53;;;;;;;67.68;31.95;;;0.00;99.90;;;;;;7587698;19;20098;-69
2023/01/20 20:19:26;;;;;;;58.70;28.70;;;0.00;99.90;;;;;;7576279;19;20022;-70
2023/01/20 20:21:59;;;;;;;67.57;31.05;;;0.00;99.90;;;;;;7563536;19;20348;-71
2023/01/20 20:24:31;;;;;;;63.78;30.58;;;0.00;99.90;;;;;;7585842;19;20022;-69
2023/01/20 20:27:03;;;;;;;66.78;31.00;;;-0.10;99.90;;;;;;7570840;19;20015;-69
2023/01/20 20:29:36;;;;;;;61.33;30.35;;;-0.10;99.90;;;;;;7563967;19;21203;-69
2023/01/20 20:32:08;;;;;;;71.57;31.20;;;-0.10;99.90;;;;;;7504524;19;20010;-69
2023/01/20 20:34:41;;;;;;;69.87;31.73;;;-0.10;99.90;;;;;;7503276;19;20019;-70
2023/01/20 20:37:14;;;;;;;65.43;31.65;;;-0.10;99.90;;;;;;7544401;19;20028;-70
2023/01/20 20:39:46;;;;;;;69.10;31.17;;;-0.10;99.90;;;;;;7557876;19;20874;-69
2023/01/20 20:42:18;;;;;;;73.93;31.65;;;-0.10;99.90;;;;;;7533492;19;20018;-72
2023/01/20 20:44:51;;;;;;;69.47;33.00;;;-0.10;99.90;;;;;;7561535;19;20006;-72
2023/01/20 20:47:23;;;;;;;64.43;30.10;;;-0.10;99.90;;;;;;7511813;19;23426;-71
2023/01/20 20:49:58;;;;;;;61.17;29.85;;;-0.10;99.90;;;;;;7546992;19;21055;-71
2023/01/20 20:52:30;;;;;;;62.72;31.42;;;-0.10;99.90;;;;;;7564960;19;20848;-71
2023/01/20 20:55:04;;;;;;;60.65;27.73;;;0.00;99.90;;;;;;7581048;19;21785;-71
2023/01/20 20:57:36;;;;;;;64.63;30.25;;;-0.10;99.90;;;;;;7551549;19;20053;-71
2023/01/20 21:00:09;;;;;;;61.42;27.55;;;-0.10;99.90;;;;;;7572914;19;20247;-71
2023/01/20 21:02:42;;;;;;;61.90;28.30;;;-0.10;99.90;;;;;;7549236;19;21057;-72
2023/01/20 21:05:16;;;;;;;63.60;27.65;;;-0.10;99.90;;;;;;7572802;19;20037;-72
2023/01/20 21:07:49;;;;;;;63.20;26.70;;;-0.10;99.90;;;;;;7553745;19;21202;-72
2023/01/20 21:10:25;;;;;;;62.10;27.95;;;-0.20;99.90;;;;;;7549516;19;20082;-71
2023/01/20 21:12:57;;;;;;;69.80;28.20;;;-0.10;99.90;;;;;;7524898;19;25524;-71
